createdAt,value
2017-11-22T00:02:06.682Z,100220.34
2017-11-22T00:04:35.784Z,100218.62
2017-11-22T00:07:04.840Z,100215.91
2017-11-22T00:09:33.177Z,100217.77
2017-11-22T00:12:01.487Z,100217.30
2017-11-22T00:14:29.824Z,100208.94
2017-11-22T00:16:58.168Z,100217.69
2017-11-22T00:19:26.733Z,100214.97
2017-11-22T00:21:55.035Z,100217.28
2017-11-22T00:24:24.092Z,100213.27
2017-11-22T00:26:52.441Z,100207.55
2017-11-22T00:29:20.753Z,100212.83
2017-11-22T00:31:49.083Z,100216.36
2017-11-22T00:34:18.166Z,100218.58
2017-11-22T00:36:47.283Z,100216.73
2017-11-22T00:39:16.755Z,100212.75
2017-11-22T00:41:45.073Z,100214.06
2017-11-22T00:44:13.432Z,100212.23
2017-11-22T00:46:41.783Z,100208.75
2017-11-22T00:49:10.847Z,100215.23
2017-11-22T00:51:39.569Z,100218.41
2017-11-22T00:54:08.643Z,100226.34
2017-11-22T00:56:36.979Z,100216.45
2017-11-22T00:59:05.294Z,100210.72
2017-11-22T01:01:33.618Z,100210.34
2017-11-22T01:04:01.912Z,100214.83
2017-11-22T01:06:30.249Z,100211.75
2017-11-22T01:08:58.551Z,100215.72
2017-11-22T01:11:26.875Z,100213.56
2017-11-22T01:13:55.215Z,100220.92
2017-11-22T01:16:23.513Z,100216.01
2017-11-22T01:18:51.798Z,100219.14
2017-11-22T01:21:20.566Z,100223.64
2017-11-22T01:23:49.328Z,100220.43
2017-11-22T01:26:17.690Z,100218.69
2017-11-22T01:28:45.998Z,100220.01
2017-11-22T01:31:14.302Z,100216.05
2017-11-22T01:33:43.055Z,100218.44
2017-11-22T01:36:11.354Z,100215.31
2017-11-22T01:38:39.718Z,100214.47
2017-11-22T01:41:08.431Z,100207.05
2017-11-22T01:43:36.735Z,100210.98
2017-11-22T01:46:05.454Z,100216.22
2017-11-22T01:48:33.789Z,100215.34
2017-11-22T01:51:02.126Z,100215.80
2017-11-22T01:53:30.420Z,100221.92
2017-11-22T01:55:59.527Z,100218.41
2017-11-22T01:58:27.839Z,100211.09
2017-11-22T02:00:56.911Z,100209.23
2017-11-22T02:03:25.242Z,100209.17
2017-11-22T02:05:53.555Z,100218.95
2017-11-22T02:08:21.898Z,100211.00
2017-11-22T02:10:50.205Z,100213.16
2017-11-22T02:13:18.524Z,100210.00
2017-11-22T02:15:46.874Z,100209.56
2017-11-22T02:18:15.962Z,100205.23
2017-11-22T02:20:44.675Z,100204.28
2017-11-22T02:23:13.787Z,100205.66
2017-11-22T02:25:42.146Z,100215.48
2017-11-22T02:28:10.455Z,100211.87
2017-11-22T02:30:38.781Z,100213.13
2017-11-22T02:33:07.114Z,100211.83
2017-11-22T02:35:35.430Z,100211.07
2017-11-22T02:38:03.817Z,100210.98
2017-11-22T02:40:32.897Z,100207.98
2017-11-22T02:43:01.231Z,100203.05
2017-11-22T02:45:29.555Z,100197.30
2017-11-22T02:47:57.866Z,100193.37
2017-11-22T02:50:26.260Z,100197.89
2017-11-22T02:52:54.570Z,100196.99
2017-11-22T02:55:22.878Z,100193.73
2017-11-22T02:57:51.983Z,100198.17
2017-11-22T03:00:20.342Z,100196.55
2017-11-22T03:02:49.049Z,100194.80
2017-11-22T03:05:17.389Z,100190.56
2017-11-22T03:07:45.694Z,100183.89
2017-11-22T03:10:14.431Z,100186.92
2017-11-22T03:12:43.134Z,100186.55
2017-11-22T03:15:11.471Z,100191.91
2017-11-22T03:17:39.801Z,100190.17
2017-11-22T03:20:08.106Z,100189.50
2017-11-22T03:22:37.282Z,100192.08
2017-11-22T03:25:06.365Z,100182.22
2017-11-22T03:27:34.673Z,100184.92
2017-11-22T03:30:03.863Z,100188.41
2017-11-22T03:32:32.925Z,100188.41
2017-11-22T03:35:02.042Z,100195.89
2017-11-22T03:37:30.347Z,100191.47
2017-11-22T03:39:58.649Z,100188.50
2017-11-22T03:42:26.993Z,100184.96
2017-11-22T03:44:56.429Z,100191.05
2017-11-22T03:47:24.765Z,100184.18
2017-11-22T03:49:58.945Z,100180.09
2017-11-22T03:52:32.827Z,100181.88
2017-11-22T03:55:01.163Z,100174.11
2017-11-22T03:57:30.234Z,100171.50
2017-11-22T03:59:58.941Z,100164.55
2017-11-22T04:02:30.533Z,100164.42
2017-11-22T04:05:00.337Z,100154.34
2017-11-22T04:07:31.642Z,100158.03
2017-11-22T04:10:01.297Z,100164.45
2017-11-22T04:12:29.621Z,100160.00
2017-11-22T04:14:59.297Z,100167.64
2017-11-22T04:17:27.637Z,100167.58
2017-11-22T04:19:59.049Z,100169.78
2017-11-22T04:22:27.385Z,100169.45
2017-11-22T04:24:55.700Z,100170.66
2017-11-22T04:27:24.393Z,100172.92
2017-11-22T04:29:52.725Z,100175.57
2017-11-22T04:32:21.803Z,100174.69
2017-11-22T04:34:50.134Z,100171.20
2017-11-22T04:37:18.454Z,100165.61
2017-11-22T04:39:46.797Z,100161.22
2017-11-22T04:42:15.145Z,100156.00
2017-11-22T04:44:43.465Z,100156.38
2017-11-22T04:47:11.820Z,100148.80
2017-11-22T04:49:42.556Z,100149.20
2017-11-22T04:52:10.926Z,100138.20
2017-11-22T04:54:39.241Z,100138.19
2017-11-22T04:57:09.087Z,100138.66
2017-11-22T04:59:37.457Z,100139.97
2017-11-22T05:02:05.757Z,100134.73
2017-11-22T05:04:34.493Z,100126.97
2017-11-22T05:07:04.093Z,100131.30
2017-11-22T05:09:34.504Z,100130.34
2017-11-22T05:12:03.616Z,100126.85
2017-11-22T05:14:32.717Z,100125.16
2017-11-22T05:17:02.248Z,100121.70
2017-11-22T05:19:30.596Z,100124.83
2017-11-22T05:21:58.913Z,100127.78
2017-11-22T05:24:27.213Z,100141.91
2017-11-22T05:26:55.549Z,100141.80
2017-11-22T05:29:23.887Z,100159.53
2017-11-22T05:31:52.218Z,100161.08
2017-11-22T05:34:20.552Z,100163.89
2017-11-22T05:36:49.616Z,100165.89
2017-11-22T05:39:18.038Z,100168.16
2017-11-22T05:41:47.132Z,100175.13
2017-11-22T05:44:15.868Z,100174.29
2017-11-22T05:46:44.182Z,100176.55
2017-11-22T05:49:13.288Z,100178.02
2017-11-22T05:51:42.385Z,100175.34
2017-11-22T05:54:11.089Z,100170.89
2017-11-22T05:56:39.472Z,100179.45
2017-11-22T05:59:07.820Z,100186.77
2017-11-22T06:01:36.953Z,100186.29
2017-11-22T06:04:05.262Z,100185.44
2017-11-22T06:06:33.636Z,100182.36
2017-11-22T06:09:01.933Z,100178.48
2017-11-22T06:11:30.236Z,100177.55
2017-11-22T06:13:58.956Z,100182.87
2017-11-22T06:16:27.272Z,100187.29
2017-11-22T06:18:55.600Z,100197.45
2017-11-22T06:21:23.901Z,100200.03
2017-11-22T06:23:52.200Z,100197.52
2017-11-22T06:26:20.520Z,100202.25
2017-11-22T06:28:48.828Z,100202.64
2017-11-22T06:31:17.544Z,100216.33
2017-11-22T06:33:45.844Z,100210.53
2017-11-22T06:36:15.516Z,100208.81
2017-11-22T06:38:43.824Z,100202.31
2017-11-22T06:41:12.548Z,100205.02
2017-11-22T06:43:41.972Z,100197.14
2017-11-22T06:46:10.300Z,100192.66
2017-11-22T06:48:38.617Z,100179.06
2017-11-22T06:51:06.969Z,100184.81
2017-11-22T06:53:35.775Z,100183.95
2017-11-22T06:56:04.104Z,100191.93
2017-11-22T06:58:32.799Z,100201.11
2017-11-22T07:01:01.132Z,100211.56
2017-11-22T07:03:33.265Z,100221.16
2017-11-22T07:06:01.587Z,100224.64
2017-11-22T07:08:29.882Z,100218.06
2017-11-22T07:10:58.212Z,100215.07
2017-11-22T07:13:26.537Z,100220.27
2017-11-22T07:15:55.624Z,100228.99
2017-11-22T07:18:23.924Z,100225.48
2017-11-22T07:20:52.236Z,100222.25
2017-11-22T07:23:20.572Z,100223.17
2017-11-22T07:25:48.924Z,100236.14
2017-11-22T07:28:17.220Z,100244.34
2017-11-22T07:30:46.287Z,100237.28
2017-11-22T07:33:15.416Z,100243.20
2017-11-22T07:35:49.903Z,100249.37
2017-11-22T07:38:18.244Z,100243.55
2017-11-22T07:40:46.556Z,100254.91
2017-11-22T07:43:14.895Z,100245.31
2017-11-22T07:45:43.191Z,100252.19
2017-11-22T07:48:15.391Z,100255.43
2017-11-22T07:50:46.371Z,100245.90
2017-11-22T07:53:14.700Z,100252.37
2017-11-22T07:55:43.404Z,100253.89
2017-11-22T07:58:11.712Z,100257.73
2017-11-22T08:00:40.032Z,100256.41
2017-11-22T08:03:09.840Z,100254.92
2017-11-22T08:05:38.180Z,100263.30
2017-11-22T08:08:07.645Z,100261.98
2017-11-22T08:10:35.935Z,100268.34
2017-11-22T08:13:05.041Z,100264.80
2017-11-22T08:15:33.740Z,100265.69
2017-11-22T08:18:02.044Z,100265.81
2017-11-22T08:20:36.800Z,100270.63
2017-11-22T08:23:05.099Z,100267.48
2017-11-22T08:25:33.834Z,100275.66
2017-11-22T08:28:02.158Z,100272.89
2017-11-22T08:30:31.269Z,100277.23
2017-11-22T08:32:59.571Z,100272.36
2017-11-22T08:35:27.876Z,100273.27
2017-11-22T08:37:56.227Z,100272.28
2017-11-22T08:40:24.935Z,100271.78
2017-11-22T08:42:59.171Z,100272.06
2017-11-22T08:45:28.615Z,100263.69
2017-11-22T08:47:57.722Z,100274.72
2017-11-22T08:50:26.072Z,100274.77
2017-11-22T08:52:54.372Z,100278.88
2017-11-22T08:55:28.895Z,100278.23
2017-11-22T08:58:02.816Z,100277.66
2017-11-22T09:00:31.188Z,100281.23
2017-11-22T09:03:05.944Z,100287.70
2017-11-22T09:05:37.887Z,100290.25
2017-11-22T09:08:06.206Z,100285.59
2017-11-22T09:10:35.279Z,100286.22
2017-11-22T09:13:05.954Z,100287.55
2017-11-22T09:15:34.263Z,100292.86
2017-11-22T09:18:07.367Z,100295.05
2017-11-22T09:20:37.199Z,100289.42
2017-11-22T09:23:06.895Z,100297.23
2017-11-22T09:25:37.199Z,100294.81
2017-11-22T09:28:06.291Z,100290.83
2017-11-22T09:30:34.603Z,100293.39
2017-11-22T09:33:02.970Z,100299.22
2017-11-22T09:35:31.704Z,100297.41
2017-11-22T09:38:00.016Z,100301.66
2017-11-22T09:40:28.360Z,100293.06
2017-11-22T09:42:56.655Z,100289.58
2017-11-22T09:45:24.994Z,100283.90
2017-11-22T09:47:53.707Z,100292.08
2017-11-22T09:50:22.039Z,100290.28
2017-11-22T09:52:51.847Z,100295.87
2017-11-22T09:55:20.207Z,100299.73
2017-11-22T09:57:49.290Z,100303.05
2017-11-22T10:00:17.603Z,100314.17
2017-11-22T10:02:45.933Z,100314.89
2017-11-22T10:05:14.266Z,100315.60
2017-11-22T10:07:43.387Z,100307.83
2017-11-22T10:10:12.084Z,100306.33
2017-11-22T10:12:40.427Z,100299.06
2017-11-22T10:15:09.505Z,100293.14
2017-11-22T10:17:41.163Z,100285.91
2017-11-22T10:20:15.326Z,100288.49
2017-11-22T10:22:45.455Z,100292.19
2017-11-22T10:25:21.887Z,100290.32
2017-11-22T10:27:50.241Z,100291.09
2017-11-22T10:30:18.570Z,100290.56
2017-11-22T10:32:50.214Z,100280.38
2017-11-22T10:35:18.519Z,100279.30
2017-11-22T10:37:46.858Z,100286.10
2017-11-22T10:40:16.718Z,100282.44
2017-11-22T10:42:45.067Z,100289.52
2017-11-22T10:45:13.387Z,100291.20
2017-11-22T10:47:42.487Z,100294.44
2017-11-22T10:50:10.859Z,100299.92
2017-11-22T10:52:39.194Z,100290.32
2017-11-22T10:55:07.543Z,100293.53
2017-11-22T10:57:35.874Z,100305.94
2017-11-22T11:00:04.227Z,100296.27
2017-11-22T11:02:32.539Z,100294.73
2017-11-22T11:05:00.880Z,100293.70
2017-11-22T11:07:29.186Z,100295.93
2017-11-22T11:09:57.524Z,100297.10
2017-11-22T11:12:25.842Z,100298.63
2017-11-22T11:14:54.939Z,100299.27
2017-11-22T11:17:23.271Z,100301.03
2017-11-22T11:19:51.628Z,100298.66
2017-11-22T11:22:20.348Z,100293.45
2017-11-22T11:24:48.690Z,100298.42
2017-11-22T11:27:17.822Z,100298.88
2017-11-22T11:29:46.134Z,100292.55
2017-11-22T11:32:15.247Z,100303.53
2017-11-22T11:34:44.358Z,100301.61
2017-11-22T11:37:13.062Z,100305.07
2017-11-22T11:39:41.386Z,100306.52
2017-11-22T11:42:10.131Z,100303.05
2017-11-22T11:44:39.582Z,100297.27
2017-11-22T11:47:08.686Z,100295.45
2017-11-22T11:49:37.023Z,100297.34
2017-11-22T11:52:05.733Z,100300.00
2017-11-22T11:54:34.081Z,100292.65
2017-11-22T11:57:02.431Z,100304.14
2017-11-22T11:59:30.751Z,100305.48
2017-11-22T12:01:59.094Z,100301.09
2017-11-22T12:04:27.422Z,100301.34
2017-11-22T12:06:56.549Z,100300.80
2017-11-22T12:09:25.648Z,100301.98
2017-11-22T12:11:57.189Z,100304.42
2017-11-22T12:14:25.532Z,100302.42
2017-11-22T12:16:53.882Z,100305.89
2017-11-22T12:19:22.189Z,100310.86
2017-11-22T12:21:56.314Z,100305.16
2017-11-22T12:24:24.649Z,100313.09
2017-11-22T12:26:52.974Z,100319.05
2017-11-22T12:29:21.396Z,100317.86
2017-11-22T12:31:49.706Z,100316.91
2017-11-22T12:34:18.019Z,100317.18
2017-11-22T12:36:46.382Z,100313.56
2017-11-22T12:39:15.455Z,100314.52
2017-11-22T12:41:44.573Z,100305.47
2017-11-22T12:44:18.725Z,100298.70
2017-11-22T12:46:47.086Z,100296.16
2017-11-22T12:49:15.417Z,100296.17
2017-11-22T12:51:43.733Z,100297.87
2017-11-22T12:54:12.064Z,100292.19
2017-11-22T12:56:40.765Z,100292.34
2017-11-22T12:59:09.110Z,100296.23
2017-11-22T13:01:37.843Z,100297.67
2017-11-22T13:04:06.166Z,100295.05
2017-11-22T13:06:34.930Z,100297.50
2017-11-22T13:09:04.078Z,100306.95
2017-11-22T13:11:34.584Z,100303.15
2017-11-22T13:14:07.813Z,100297.49
2017-11-22T13:16:36.165Z,100306.09
2017-11-22T13:19:04.483Z,100303.90
2017-11-22T13:21:33.517Z,100303.25
2017-11-22T13:24:01.886Z,100312.94
2017-11-22T13:26:30.242Z,100310.38
2017-11-22T13:28:59.341Z,100299.05
2017-11-22T13:31:28.448Z,100299.75
2017-11-22T13:33:57.553Z,100299.05
2017-11-22T13:36:26.324Z,100295.84
2017-11-22T13:38:56.136Z,100299.80
2017-11-22T13:41:30.608Z,100297.55
2017-11-22T13:43:58.961Z,100302.11
2017-11-22T13:46:27.260Z,100302.36
2017-11-22T13:48:55.597Z,100299.30
2017-11-22T13:51:23.928Z,100298.53
2017-11-22T13:53:52.477Z,100298.28
2017-11-22T13:56:20.811Z,100309.95
2017-11-22T13:58:49.920Z,100306.41
2017-11-22T14:01:18.692Z,100305.78
2017-11-22T14:03:47.005Z,100316.41
2017-11-22T14:06:15.713Z,100322.30
2017-11-22T14:08:44.048Z,100323.70
2017-11-22T14:11:12.345Z,100325.48
2017-11-22T14:13:41.452Z,100331.88
2017-11-22T14:16:09.757Z,100336.27
2017-11-22T14:18:38.823Z,100333.14
2017-11-22T14:21:07.157Z,100333.24
2017-11-22T14:23:36.225Z,100332.57
2017-11-22T14:26:04.580Z,100331.66
2017-11-22T14:28:32.888Z,100329.24
2017-11-22T14:31:01.801Z,100333.27
2017-11-22T14:33:30.917Z,100338.28
2017-11-22T14:35:59.249Z,100337.86
2017-11-22T14:38:27.588Z,100338.02
2017-11-22T14:40:55.948Z,100338.37
2017-11-22T14:43:24.261Z,100329.91
2017-11-22T14:45:52.572Z,100333.06
2017-11-22T14:48:20.920Z,100331.88
2017-11-22T14:50:49.271Z,100333.70
2017-11-22T14:53:17.619Z,100337.42
2017-11-22T14:55:46.717Z,100338.97
2017-11-22T14:58:15.051Z,100341.30
2017-11-22T15:00:43.354Z,100350.56
2017-11-22T15:03:12.061Z,100345.29
2017-11-22T15:05:40.815Z,100344.06
2017-11-22T15:08:09.509Z,100339.16
2017-11-22T15:10:37.849Z,100338.38
2017-11-22T15:13:07.692Z,100351.11
2017-11-22T15:15:36.019Z,100344.70
2017-11-22T15:18:04.377Z,100353.25
2017-11-22T15:20:33.149Z,100353.25
2017-11-22T15:23:01.853Z,100353.06
2017-11-22T15:25:30.960Z,100356.53
2017-11-22T15:27:59.260Z,100359.55
2017-11-22T15:30:28.001Z,100356.63
2017-11-22T15:32:57.702Z,100357.55
2017-11-22T15:35:26.836Z,100349.77
2017-11-22T15:37:55.190Z,100348.19
2017-11-22T15:40:24.306Z,100348.36
2017-11-22T15:42:52.653Z,100345.37
2017-11-22T15:45:21.373Z,100349.47
2017-11-22T15:47:50.865Z,100344.55
2017-11-22T15:50:19.965Z,100344.12
2017-11-22T15:52:48.702Z,100349.95
2017-11-22T15:55:18.566Z,100349.59
2017-11-22T15:57:46.918Z,100346.11
2017-11-22T16:00:15.993Z,100350.59
2017-11-22T16:02:44.751Z,100348.79
2017-11-22T16:05:13.509Z,100360.69
2017-11-22T16:07:41.811Z,100354.03
2017-11-22T16:10:10.111Z,100357.02
2017-11-22T16:12:38.444Z,100358.31
2017-11-22T16:15:07.942Z,100360.05
2017-11-22T16:17:36.272Z,100357.39
2017-11-22T16:20:04.961Z,100358.66
2017-11-22T16:22:35.573Z,100359.55
2017-11-22T16:25:03.917Z,100359.91
2017-11-22T16:27:33.373Z,100357.36
2017-11-22T16:30:01.709Z,100362.22
2017-11-22T16:32:30.789Z,100364.75
2017-11-22T16:34:59.517Z,100365.59
2017-11-22T16:37:27.885Z,100369.56
2017-11-22T16:40:01.805Z,100363.75
2017-11-22T16:42:30.435Z,100365.15
2017-11-22T16:45:01.048Z,100370.81
2017-11-22T16:47:30.506Z,100369.85
2017-11-22T16:49:59.228Z,100371.23
2017-11-22T16:52:27.999Z,100371.23
2017-11-22T16:54:56.751Z,100368.89
2017-11-22T16:57:26.312Z,100366.63
2017-11-22T16:59:54.726Z,100362.69
2017-11-22T17:02:23.072Z,100358.34
2017-11-22T17:04:52.527Z,100354.33
2017-11-22T17:07:21.852Z,100354.11
2017-11-22T17:09:50.213Z,100364.77
2017-11-22T17:12:18.545Z,100374.12
2017-11-22T17:14:47.612Z,100372.87
2017-11-22T17:17:16.349Z,100367.28
2017-11-22T17:19:44.676Z,100359.20
2017-11-22T17:22:13.892Z,100360.66
2017-11-22T17:24:42.989Z,100365.54
2017-11-22T17:27:12.489Z,100355.95
2017-11-22T17:29:41.271Z,100347.86
2017-11-22T17:32:10.005Z,100345.91
2017-11-22T17:34:38.387Z,100346.20
2017-11-22T17:37:08.091Z,100341.13
2017-11-22T17:39:36.400Z,100343.99
2017-11-22T17:42:04.762Z,100345.61
2017-11-22T17:44:33.068Z,100342.81
2017-11-22T17:47:02.156Z,100338.61
2017-11-22T17:49:32.006Z,100343.59
2017-11-22T17:52:00.712Z,100346.45
2017-11-22T17:54:29.023Z,100342.18
2017-11-22T17:56:58.888Z,100349.36
2017-11-22T17:59:27.215Z,100344.67
2017-11-22T18:01:55.596Z,100340.36
2017-11-22T18:04:25.474Z,100344.81
2017-11-22T18:06:53.815Z,100337.91
2017-11-22T18:09:22.180Z,100339.33
2017-11-22T18:11:50.527Z,100342.95
2017-11-22T18:14:19.299Z,100347.02
2017-11-22T18:16:47.617Z,100336.16
2017-11-22T18:19:15.967Z,100338.91
2017-11-22T18:21:44.823Z,100343.31
2017-11-22T18:24:13.164Z,100345.13
2017-11-22T18:26:42.272Z,100350.40
2017-11-22T18:29:12.228Z,100350.86
2017-11-22T18:31:40.635Z,100346.95
2017-11-22T18:34:11.120Z,100347.03
2017-11-22T18:36:40.719Z,100343.17
2017-11-22T18:39:09.043Z,100341.05
2017-11-22T18:41:38.951Z,100345.03
2017-11-22T18:44:08.446Z,100348.61
2017-11-22T18:46:36.891Z,100342.50
2017-11-22T18:49:06.817Z,100337.75
2017-11-22T18:51:36.827Z,100343.00
2017-11-22T18:54:06.200Z,100342.58
2017-11-22T18:56:36.145Z,100348.27
2017-11-22T18:59:06.760Z,100345.72
2017-11-22T19:01:35.218Z,100344.43
2017-11-22T19:04:04.456Z,100345.36
2017-11-22T19:06:34.749Z,100344.09
2017-11-22T19:09:03.892Z,100345.45
2017-11-22T19:11:32.524Z,100350.29
2017-11-22T19:14:02.282Z,100345.02
2017-11-22T19:16:30.611Z,100339.83
2017-11-22T19:19:00.537Z,100338.53
2017-11-22T19:47:01.742Z,100341.76
2017-11-22T19:52:31.407Z,100332.69
2017-11-22T19:55:01.657Z,100333.05
2017-11-22T19:57:35.882Z,100340.50
2017-11-22T20:00:19.036Z,100333.13
2017-11-22T20:05:31.049Z,100330.95
2017-11-22T20:08:12.218Z,100323.12
2017-11-22T20:10:41.474Z,100330.59
2017-11-22T20:13:09.861Z,100325.00
2017-11-22T20:15:39.364Z,100331.58
2017-11-22T20:18:18.008Z,100329.84
2017-11-22T20:20:51.630Z,100332.95
2017-11-22T20:26:55.738Z,100325.08
2017-11-22T20:29:26.292Z,100329.93
2017-11-22T20:31:56.852Z,100324.63
2017-11-22T20:34:47.414Z,100330.37
2017-11-22T20:40:46.757Z,100320.30
2017-11-22T20:43:15.806Z,100319.88
2017-11-22T20:45:45.716Z,100317.25
2017-11-22T20:48:16.729Z,100319.48
2017-11-22T20:50:46.801Z,100326.09
2017-11-22T20:53:17.382Z,100329.61
2017-11-22T20:55:46.296Z,100328.30
2017-11-22T20:58:15.247Z,100329.62
2017-11-22T21:00:44.191Z,100328.30
2017-11-22T21:03:14.031Z,100325.69
2017-11-22T21:05:43.614Z,100323.97
2017-11-22T21:08:11.982Z,100318.77
2017-11-22T21:10:40.751Z,100317.02
2017-11-22T21:13:09.483Z,100320.55
2017-11-22T21:15:41.730Z,100313.12
2017-11-22T21:18:10.971Z,100313.59
2017-11-22T21:20:40.662Z,100314.03
2017-11-22T21:23:10.333Z,100310.09
2017-11-22T21:25:41.329Z,100314.91
2017-11-22T21:28:09.843Z,100319.71
2017-11-22T21:30:38.644Z,100318.84
2017-11-22T21:33:07.085Z,100311.87
2017-11-22T21:35:36.115Z,100314.94
2017-11-22T21:38:05.641Z,100312.72
2017-11-22T21:40:36.292Z,100307.47
2017-11-22T21:43:05.963Z,100311.87
2017-11-22T21:45:35.663Z,100308.84
2017-11-22T21:48:18.402Z,100313.22
2017-11-22T21:50:48.133Z,100313.69
2017-11-22T21:53:17.453Z,100310.63
2017-11-22T21:55:45.985Z,100310.63
2017-11-22T21:58:14.889Z,100314.53
2017-11-22T22:00:43.309Z,100309.72
2017-11-22T22:03:11.665Z,100307.56
2017-11-22T22:05:39.973Z,100317.64
2017-11-22T22:08:08.324Z,100321.16
2017-11-22T22:10:37.429Z,100318.53
2017-11-22T22:13:27.617Z,100315.06
2017-11-22T22:16:00.341Z,100314.17
2017-11-22T22:18:29.843Z,100311.58
2017-11-22T22:21:00.984Z,100305.89
2017-11-22T22:23:30.765Z,100301.10
2017-11-22T22:26:02.293Z,100300.66
2017-11-22T22:28:32.948Z,100298.91
2017-11-22T22:31:03.960Z,100297.59
2017-11-22T22:33:35.084Z,100295.84
2017-11-22T22:36:05.276Z,100305.48
2017-11-22T22:38:35.935Z,100302.84
2017-11-22T22:41:05.742Z,100300.66
2017-11-22T22:43:35.093Z,100302.44
2017-11-22T22:46:03.669Z,100308.52
2017-11-22T22:48:35.297Z,100305.06
2017-11-22T22:51:05.516Z,100298.94
2017-11-22T22:53:34.633Z,100299.38
2017-11-22T22:56:03.328Z,100298.07
2017-11-22T22:58:32.432Z,100297.20
2017-11-22T23:01:02.112Z,100306.79
2017-11-22T23:03:32.606Z,100298.95
2017-11-22T23:06:01.688Z,100293.67
2017-11-22T23:08:30.814Z,100287.58
2017-11-22T23:10:59.179Z,100286.23
2017-11-22T23:13:27.488Z,100281.02
2017-11-22T23:15:56.582Z,100283.18
2017-11-22T23:18:25.673Z,100284.49
2017-11-22T23:20:54.756Z,100280.60
2017-11-22T23:23:23.097Z,100280.16
2017-11-22T23:25:51.400Z,100287.59
2017-11-22T23:28:21.092Z,100284.53
2017-11-22T23:30:49.388Z,100277.97
2017-11-22T23:33:18.488Z,100284.11
2017-11-22T23:35:46.805Z,100280.19
2017-11-22T23:38:15.145Z,100278.42
2017-11-22T23:40:43.456Z,100281.04
2017-11-22T23:43:11.756Z,100282.81
2017-11-22T23:45:40.096Z,100282.80
2017-11-22T23:48:08.412Z,100282.80
2017-11-22T23:50:36.760Z,100277.98
2017-11-22T23:53:05.088Z,100279.32
2017-11-22T23:55:33.792Z,100276.26
2017-11-22T23:58:02.127Z,100279.31
